CDT,Max TemperatureF,Mean TemperatureF,Min TemperatureF,Max Dew PointF,MeanDew PointF,Min DewpointF,Max Humidity, Mean Humidity, Min Humidity, Max Sea Level PressureIn, Mean Sea Level PressureIn, Min Sea Level PressureIn, Max VisibilityMiles, Mean VisibilityMiles, Min VisibilityMiles, Max Wind SpeedMPH, Mean Wind SpeedMPH, Max Gust SpeedMPH,PrecipitationIn, CloudCover, Events, WindDirDegrees
2013-4-1,64,52,39,47,41,33,83,72,52,30.14,30.06,30.00,10,10,10,25,13,33,0.00,2,,71
2013-4-2,37,36,33,36,34,30,100,90,75,30.19,30.14,30.10,10,5,2,28,22,36,0.12,8,Rain-Snow-Thunderstorm,32
2013-4-3,37,35,33,36,34,33,100,94,87,30.26,30.19,30.13,10,4,2,21,16,24,0.26,8,Rain-Snow-Thunderstorm,25
2013-4-4,48,40,33,38,35,33,100,85,66,30.27,30.22,30.16,10,8,5,12,8,,0.00,6,Rain,9
2013-4-5,63,48,32,46,41,31,97,76,54,30.22,30.09,29.83,10,9,4,25,13,39,0.00,0,,191
2013-4-6,71,59,48,52,47,45,87,67,44,29.86,29.82,29.75,10,10,10,25,17,33,0.00,0,,161
2013-4-7,77,63,51,60,55,47,100,81,57,29.83,29.74,29.60,10,7,0,24,12,29,0.00,3,Fog,136
2013-4-8,82,71,60,63,60,58,93,76,47,29.58,29.53,29.46,10,10,8,31,20,40,0.00,1,,169
2013-4-9,73,50,30,62,43,27,93,82,62,29.96,29.72,29.50,10,8,2,38,25,50,0.43,7,Rain-Snow-Thunderstorm,334
2013-4-10,45,34,24,28,25,21,93,80,45,30.10,30.00,29.88,10,9,3,34,27,45,0.21,6,Rain-Thunderstorm,338
2013-4-11,60,43,27,37,27,20,81,59,33,30.01,29.89,29.75,10,10,10,18,10,23,0.00,0,,261
2013-4-12,61,48,37,43,37,30,83,66,49,30.04,29.96,29.88,10,10,10,15,9,,0.00,2,,43
2013-4-13,73,57,42,47,42,36,82,59,34,29.99,29.83,29.64,10,10,10,26,14,34,0.00,0,,137
2013-4-14,82,68,55,55,48,37,77,55,27,29.62,29.52,29.44,10,10,10,30,22,41,0.00,0,,185
2013-4-15,69,60,48,50,37,26,64,46,33,29.81,29.70,29.61,10,10,10,25,19,34,0.00,3,,47
2013-4-16,55,50,44,45,41,34,93,76,63,29.99,29.90,29.77,10,9,3,21,16,30,0.00,7,,31
2013-4-17,48,44,39,47,45,39,100,96,93,29.89,29.75,29.60,7,1,0,30,14,39,0.04,8,Fog-Rain-Thunderstorm,13
2013-4-18,48,40,32,38,29,23,96,69,40,30.20,30.00,29.79,10,10,4,33,25,45,0.19,5,Rain,335
2013-4-19,66,47,30,35,25,19,79,47,22,30.26,30.16,30.06,10,10,10,15,10,23,0.00,0,,275
2013-4-20,70,56,44,34,31,28,58,41,23,30.06,29.99,29.90,10,10,10,28,17,40,0.00,0,,168
2013-4-21,70,58,48,49,43,31,77,57,39,30.09,30.04,29.99,10,10,10,25,19,33,0.00,1,,153
2013-4-22,79,64,46,57,51,44,90,70,47,30.03,29.87,29.68,10,10,10,26,19,37,0.00,3,,157
2013-4-23,43,38,32,40,30,23,96,83,64,30.33,30.12,29.91,10,8,2,34,26,43,0.00,8,Rain-Snow,358
2013-4-24,60,42,26,33,27,22,92,57,26,30.36,30.32,30.25,10,10,6,12,7,,0.00,0,,351
2013-4-25,66,50,35,37,32,27,82,50,24,30.33,30.24,30.06,10,10,10,24,11,30,0.00,2,,172
2013-4-26,75,65,55,58,51,38,100,75,46,30.09,30.02,29.86,10,8,0,37,18,48,0.28,7,Fog-Rain-Thunderstorm,130
2013-4-27,72,62,51,54,51,48,100,82,43,30.19,30.10,30.01,10,8,0,21,14,26,0.00,5,Fog-Rain,360
2013-4-28,84,67,50,53,48,41,96,59,25,30.01,29.90,29.76,10,10,9,16,11,26,0.00,0,,173
2013-4-29,89,74,59,60,49,38,90,50,18,29.80,29.72,29.63,10,10,10,28,16,44,0.00,0,,182
2013-4-30,87,74,62,59,57,53,84,59,33,29.69,29.65,29.61,10,10,10,28,23,37,0.00,0,,168